createdAt,value
2024-04-08T00:01:47.050Z,100028.12
2024-04-08T00:04:33.349Z,100019.95
2024-04-08T00:07:20.364Z,100019.07
2024-04-08T00:10:08.077Z,100019.33
2024-04-08T00:12:54.503Z,100019.70
2024-04-08T00:15:40.462Z,100019.70
2024-04-08T00:18:26.561Z,100020.23
2024-04-08T00:21:12.895Z,100020.73
2024-04-08T00:23:58.815Z,100024.90
2024-04-08T00:31:24.879Z,100025.38
2024-04-08T00:34:11.045Z,100024.60
2024-04-08T00:36:57.563Z,100024.20
2024-04-08T00:39:43.993Z,100020.83
2024-04-08T00:42:30.235Z,100024.61
2024-04-08T00:45:16.555Z,100020.27
2024-04-08T00:48:06.429Z,100017.96
2024-04-08T00:50:54.712Z,100014.20
2024-04-08T00:53:42.509Z,100010.29
2024-04-08T00:56:29.302Z,100009.12
2024-04-08T00:59:15.779Z,100001.47
2024-04-08T01:02:06.942Z,99996.69
2024-04-08T01:04:53.862Z,99988.47
2024-04-08T01:07:45.009Z,99981.48
2024-04-08T01:10:31.886Z,99981.30
2024-04-08T01:13:18.383Z,99983.00
2024-04-08T01:16:06.540Z,99979.48
2024-04-08T01:18:52.732Z,99978.52
2024-04-08T01:21:40.131Z,99976.08
2024-04-08T01:24:27.765Z,99972.22
2024-04-08T01:27:16.082Z,99971.86
2024-04-08T01:30:03.143Z,99962.95
2024-04-08T01:32:50.058Z,99962.11
2024-04-08T01:35:37.194Z,99960.19
2024-04-08T01:38:23.903Z,99963.97
2024-04-08T01:41:10.291Z,99960.20
2024-04-08T01:43:56.548Z,99959.20
2024-04-08T01:46:42.936Z,99956.83
2024-04-08T01:49:31.177Z,99951.61
2024-04-08T01:52:17.356Z,99952.27
2024-04-08T01:55:04.417Z,99955.81
2024-04-08T01:57:51.545Z,99953.52
2024-04-08T02:00:37.902Z,99951.58
2024-04-08T02:03:24.043Z,99952.74
2024-04-08T02:06:10.183Z,99959.06
2024-04-08T02:08:58.219Z,99955.41
2024-04-08T02:11:44.569Z,99953.23
2024-04-08T02:14:31.314Z,99949.48
2024-04-08T02:17:17.817Z,99948.04
2024-04-08T02:20:05.278Z,99947.39
2024-04-08T02:22:51.369Z,99944.31
2024-04-08T02:29:52.623Z,99937.04
2024-04-08T02:32:39.228Z,99935.48
2024-04-08T02:35:26.958Z,99935.85
2024-04-08T02:38:38.802Z,99931.55
2024-04-08T02:41:28.377Z,99922.66
2024-04-08T02:44:16.207Z,99923.41
2024-04-08T02:47:02.613Z,99927.18
2024-04-08T02:49:50.239Z,99920.91
2024-04-08T02:52:36.378Z,99913.38
2024-04-08T02:55:23.651Z,99905.89
2024-04-08T02:59:00.883Z,99907.90
2024-04-08T03:01:49.547Z,99903.75
2024-04-08T03:04:37.130Z,99911.73
2024-04-08T03:07:23.511Z,99913.48
2024-04-08T03:10:12.023Z,99916.48
2024-04-08T03:12:58.549Z,99911.73
2024-04-08T03:15:54.896Z,99911.91
2024-04-08T03:18:41.710Z,99920.48
2024-04-08T03:21:27.898Z,99917.88
2024-04-08T03:24:16.436Z,99909.06
2024-04-08T03:27:28.879Z,99907.35
2024-04-08T03:30:14.916Z,99907.79
2024-04-08T03:33:01.455Z,99906.33
2024-04-08T03:35:49.604Z,99913.11
2024-04-08T03:38:36.019Z,99911.90
2024-04-08T03:41:22.506Z,99915.70
2024-04-08T03:44:09.044Z,99912.01
2024-04-08T03:46:55.285Z,99907.50
2024-04-08T03:49:42.008Z,99908.59
2024-04-08T03:52:28.414Z,99906.64
2024-04-08T03:55:14.805Z,99905.19
2024-04-08T03:58:01.126Z,99893.00
2024-04-08T04:00:47.645Z,99892.74
2024-04-08T04:03:36.495Z,99896.26
2024-04-08T04:06:22.669Z,99891.10
2024-04-08T04:09:12.550Z,99879.80
2024-04-08T04:11:59.032Z,99875.52
2024-04-08T04:23:58.732Z,99879.47
2024-04-08T04:26:44.956Z,99877.38
2024-04-08T04:29:31.546Z,99875.61
2024-04-08T04:32:20.469Z,99867.80
2024-04-08T04:35:06.771Z,99866.19
2024-04-08T04:37:53.640Z,99863.45
2024-04-08T04:40:39.990Z,99863.03
2024-04-08T04:43:27.147Z,99868.30
2024-04-08T04:46:13.311Z,99868.37
2024-04-08T04:49:28.088Z,99869.77
2024-04-08T04:52:16.646Z,99866.86
2024-04-08T04:55:03.048Z,99866.29
2024-04-08T04:57:49.408Z,99867.94
2024-04-08T05:00:38.556Z,99870.50
2024-04-08T05:03:25.183Z,99871.06
2024-04-08T05:06:11.544Z,99870.98
2024-04-08T05:09:01.691Z,99870.31
2024-04-08T05:11:50.010Z,99866.27
2024-04-08T05:14:36.116Z,99861.10
2024-04-08T05:17:24.198Z,99867.72
2024-04-08T05:20:11.190Z,99863.54
2024-04-08T05:22:57.667Z,99861.96
2024-04-08T05:25:44.286Z,99865.62
2024-04-08T05:28:33.154Z,99863.17
2024-04-08T05:31:19.141Z,99863.14
2024-04-08T05:34:05.201Z,99862.02
2024-04-08T05:36:54.502Z,99862.76
2024-04-08T05:40:33.843Z,99866.69
2024-04-08T05:43:21.189Z,99866.12
2024-04-08T05:46:09.256Z,99862.86
2024-04-08T05:48:55.364Z,99858.48
2024-04-08T05:51:42.114Z,99862.69
2024-04-08T05:54:28.097Z,99863.45
2024-04-08T05:57:14.389Z,99863.76
2024-04-08T06:04:49.867Z,99868.59
2024-04-08T06:07:38.319Z,99868.40
2024-04-08T06:10:32.984Z,99868.02
2024-04-08T06:13:19.438Z,99868.59
2024-04-08T06:16:05.837Z,99867.80
2024-04-08T06:18:52.214Z,99867.72
2024-04-08T06:21:38.915Z,99868.83
2024-04-08T06:24:26.013Z,99866.05
2024-04-08T06:27:14.758Z,99861.21
2024-04-08T06:30:01.444Z,99862.21
2024-04-08T06:32:52.353Z,99854.83
2024-04-08T06:35:58.564Z,99848.22
2024-04-08T06:38:45.420Z,99848.89
2024-04-08T06:41:35.650Z,99845.77
2024-04-08T06:44:21.700Z,99845.07
2024-04-08T06:47:09.210Z,99847.90
2024-04-08T06:49:55.545Z,99851.83
2024-04-08T06:52:41.639Z,99847.17
2024-04-08T06:55:27.987Z,99849.27
2024-04-08T06:58:20.502Z,99851.58
2024-04-08T07:01:07.149Z,99849.55
2024-04-08T07:03:55.064Z,99853.77
2024-04-08T07:06:41.313Z,99857.30
2024-04-08T07:09:31.237Z,99860.06
2024-04-08T07:12:17.351Z,99861.35
2024-04-08T07:15:03.939Z,99855.70
2024-04-08T07:17:51.776Z,99856.52
2024-04-08T07:20:39.831Z,99851.61
2024-04-08T07:23:26.173Z,99853.63
2024-04-08T07:26:12.591Z,99851.65
2024-04-08T07:28:58.643Z,99849.77
2024-04-08T07:31:45.071Z,99853.05
2024-04-08T07:34:32.119Z,99857.44
2024-04-08T07:37:18.362Z,99848.13
2024-04-08T07:40:07.087Z,99849.58
2024-04-08T07:42:53.880Z,99850.44
2024-04-08T07:45:45.343Z,99854.12
2024-04-08T07:48:33.153Z,99862.66
2024-04-08T07:51:19.597Z,99861.07
2024-04-08T07:54:08.430Z,99857.06
2024-04-08T07:56:59.834Z,99860.14
2024-04-08T07:59:46.101Z,99865.88
2024-04-08T08:02:36.663Z,99869.55
2024-04-08T08:05:23.123Z,99870.19
2024-04-08T08:08:10.852Z,99865.64
2024-04-08T08:11:04.613Z,99862.20
2024-04-08T08:13:50.972Z,99864.37
2024-04-08T08:16:37.262Z,99863.61
2024-04-08T08:19:23.415Z,99862.82
2024-04-08T08:22:12.552Z,99864.17
2024-04-08T08:24:58.967Z,99862.42
2024-04-08T08:27:46.989Z,99864.88
2024-04-08T08:30:39.172Z,99866.06
2024-04-08T08:33:25.581Z,99869.99
2024-04-08T08:36:11.726Z,99872.59
2024-04-08T08:38:58.961Z,99874.09
2024-04-08T08:41:55.147Z,99874.55
2024-04-08T08:44:48.371Z,99876.61
2024-04-08T08:47:37.052Z,99877.03
2024-04-08T08:50:27.325Z,99876.08
2024-04-08T08:53:13.660Z,99874.92
2024-04-08T08:56:05.106Z,99869.34
2024-04-08T08:59:43.167Z,99869.88
2024-04-08T09:02:34.866Z,99869.59
2024-04-08T09:05:21.196Z,99868.77
2024-04-08T09:08:08.886Z,99871.06
2024-04-08T09:10:54.957Z,99866.96
2024-04-08T09:13:41.651Z,99863.18
2024-04-08T09:16:27.831Z,99867.02
2024-04-08T09:19:19.390Z,99858.06
2024-04-08T09:22:07.663Z,99857.83
2024-04-08T09:24:54.111Z,99851.73
2024-04-08T09:27:48.033Z,99855.20
2024-04-08T09:30:35.569Z,99851.42
2024-04-08T09:33:24.016Z,99854.55
2024-04-08T09:36:11.098Z,99859.70
2024-04-08T09:39:02.576Z,99857.68
2024-04-08T09:41:58.382Z,99840.59
2024-04-08T09:44:46.273Z,99840.58
2024-04-08T09:47:34.548Z,99834.23
2024-04-08T09:50:26.823Z,99831.98
2024-04-08T09:53:13.013Z,99830.41
2024-04-08T09:56:10.083Z,99823.52
2024-04-08T09:59:22.706Z,99821.88
2024-04-08T10:02:19.385Z,99822.91
2024-04-08T10:05:08.185Z,99821.04
2024-04-08T10:07:55.543Z,99814.78
2024-04-08T10:10:42.902Z,99817.21
2024-04-08T10:13:29.086Z,99810.95
2024-04-08T10:16:15.943Z,99813.23
2024-04-08T10:19:07.077Z,99807.66
2024-04-08T10:22:03.798Z,99811.36
2024-04-08T10:24:57.480Z,99812.33
2024-04-08T10:27:44.829Z,99814.40
2024-04-08T10:30:34.991Z,99808.95
2024-04-08T10:33:25.543Z,99802.91
2024-04-08T10:36:12.637Z,99803.38
2024-04-08T10:38:59.332Z,99802.10
2024-04-08T10:41:45.406Z,99804.59
2024-04-08T10:44:32.723Z,99803.12
2024-04-08T10:47:19.018Z,99807.25
2024-04-08T10:50:10.990Z,99806.85
2024-04-08T10:53:00.377Z,99801.23
2024-04-08T10:55:46.594Z,99801.04
2024-04-08T10:58:33.312Z,99808.34
2024-04-08T11:01:20.306Z,99803.34
2024-04-08T11:04:06.412Z,99798.77
2024-04-08T11:06:52.727Z,99796.38
2024-04-08T11:09:39.469Z,99793.38
2024-04-08T11:12:26.153Z,99777.39
2024-04-08T11:15:17.690Z,99781.76
2024-04-08T11:18:04.369Z,99780.89
2024-04-08T11:20:51.068Z,99777.17
2024-04-08T11:23:46.696Z,99778.64
2024-04-08T11:26:38.752Z,99776.50
2024-04-08T11:29:28.456Z,99776.03
2024-04-08T11:32:15.122Z,99770.35
2024-04-08T11:35:01.561Z,99767.27
2024-04-08T11:37:48.156Z,99768.90
2024-04-08T11:40:34.516Z,99768.07
2024-04-08T11:43:20.591Z,99765.42
2024-04-08T11:46:07.438Z,99768.02
2024-04-08T11:48:54.103Z,99765.50
2024-04-08T11:51:40.605Z,99762.10
2024-04-08T11:54:26.801Z,99762.91
2024-04-08T11:57:15.389Z,99761.65
2024-04-08T12:00:02.395Z,99761.52
2024-04-08T12:02:49.730Z,99767.08
2024-04-08T12:05:35.954Z,99765.55
2024-04-08T12:08:22.272Z,99765.21
2024-04-08T12:11:12.027Z,99762.48
2024-04-08T12:13:58.859Z,99763.14
2024-04-08T12:16:45.319Z,99761.23
2024-04-08T12:19:31.475Z,99756.77
2024-04-08T12:22:20.912Z,99752.09
2024-04-08T12:25:07.534Z,99747.90
2024-04-08T12:27:54.267Z,99742.18
2024-04-08T12:30:43.666Z,99735.45
2024-04-08T12:33:30.772Z,99737.83
2024-04-08T12:36:18.938Z,99734.58
2024-04-08T12:39:06.361Z,99729.73
2024-04-08T12:41:53.678Z,99724.52
2024-04-08T12:44:43.579Z,99722.80
2024-04-08T12:47:30.620Z,99718.59
2024-04-08T12:50:16.945Z,99717.02
2024-04-08T12:53:04.573Z,99715.42
2024-04-08T12:55:52.590Z,99717.08
2024-04-08T12:58:39.264Z,99715.53
2024-04-08T13:01:26.579Z,99718.95
2024-04-08T13:04:14.380Z,99718.40
2024-04-08T13:07:00.627Z,99716.33
2024-04-08T13:09:47.459Z,99712.20
2024-04-08T13:12:34.694Z,99710.73
2024-04-08T13:15:21.064Z,99711.62
2024-04-08T13:18:08.995Z,99707.41
2024-04-08T13:20:56.686Z,99714.27
2024-04-08T13:24:08.748Z,99716.34
2024-04-08T13:26:55.093Z,99716.75
2024-04-08T13:29:42.750Z,99722.94
2024-04-08T13:32:31.591Z,99725.94
2024-04-08T13:35:24.098Z,99719.63
2024-04-08T13:38:10.522Z,99717.73
2024-04-08T13:40:57.198Z,99712.40
2024-04-08T13:43:45.568Z,99711.05
2024-04-08T13:46:32.887Z,99706.38
2024-04-08T13:49:21.373Z,99700.65
2024-04-08T13:52:10.484Z,99694.55
2024-04-08T13:54:58.066Z,99695.22
2024-04-08T13:57:47.220Z,99691.73
2024-04-08T14:00:34.378Z,99694.00
2024-04-08T14:03:22.549Z,99691.61
2024-04-08T14:06:09.931Z,99691.42
2024-04-08T14:08:56.188Z,99690.12
2024-04-08T14:11:45.496Z,99684.78
2024-04-08T14:14:32.344Z,99682.40
2024-04-08T14:17:20.090Z,99678.57
2024-04-08T14:20:08.002Z,99678.55
2024-04-08T14:22:58.821Z,99676.41
2024-04-08T14:25:45.925Z,99671.98
2024-04-08T14:28:32.345Z,99670.91
2024-04-08T14:31:18.912Z,99669.08
2024-04-08T14:34:04.990Z,99668.72
2024-04-08T14:36:52.759Z,99666.46
2024-04-08T14:39:39.948Z,99664.54
2024-04-08T14:42:26.733Z,99662.62
2024-04-08T14:45:14.902Z,99665.62
2024-04-08T14:48:01.327Z,99665.48
2024-04-08T14:50:48.337Z,99659.09
2024-04-08T14:53:35.151Z,99652.63
2024-04-08T14:56:22.639Z,99653.01
2024-04-08T14:59:11.146Z,99653.80
2024-04-08T15:01:57.518Z,99653.80
2024-04-08T15:04:43.727Z,99651.10
2024-04-08T15:07:35.653Z,99651.13
2024-04-08T15:10:22.250Z,99646.17
2024-04-08T15:13:08.182Z,99644.43
2024-04-08T15:15:56.182Z,99645.40
2024-04-08T15:18:42.806Z,99642.73
2024-04-08T15:21:29.118Z,99637.51
2024-04-08T15:24:15.700Z,99639.99
2024-04-08T15:27:03.610Z,99643.95
2024-04-08T15:29:54.740Z,99642.24
2024-04-08T15:32:42.241Z,99646.17
2024-04-08T15:35:28.920Z,99645.00
2024-04-08T15:38:15.327Z,99646.83
2024-04-08T15:41:01.976Z,99643.84
2024-04-08T15:43:48.296Z,99644.29
2024-04-08T15:46:34.372Z,99643.39
2024-04-08T15:49:20.614Z,99642.95
2024-04-08T15:52:07.610Z,99637.65
2024-04-08T15:54:54.149Z,99638.19
2024-04-08T15:57:40.811Z,99632.97
2024-04-08T16:00:29.668Z,99631.23
2024-04-08T16:03:16.655Z,99632.29
2024-04-08T16:06:14.627Z,99629.53
2024-04-08T16:09:04.518Z,99631.52
2024-04-08T16:11:51.092Z,99630.71
2024-04-08T16:14:38.568Z,99630.98
2024-04-08T16:17:24.609Z,99625.05
2024-04-08T16:20:11.287Z,99622.79
2024-04-08T16:23:27.288Z,99617.66
2024-04-08T16:26:26.586Z,99622.42
2024-04-08T16:29:13.434Z,99628.30
2024-04-08T16:31:59.759Z,99630.95
2024-04-08T16:34:46.297Z,99633.43
2024-04-08T16:37:32.766Z,99631.60
2024-04-08T16:40:18.930Z,99633.77
2024-04-08T16:43:06.749Z,99628.25
2024-04-08T16:45:57.606Z,99628.61
2024-04-08T16:48:44.333Z,99629.97
2024-04-08T16:51:31.093Z,99634.78
2024-04-08T16:54:19.979Z,99642.27
2024-04-08T16:57:06.091Z,99644.11
2024-04-08T16:59:52.875Z,99640.22
2024-04-08T17:02:42.165Z,99640.71
2024-04-08T17:05:28.960Z,99637.05
2024-04-08T17:08:15.181Z,99636.98
2024-04-08T17:11:03.014Z,99635.24
2024-04-08T17:13:49.672Z,99636.10
2024-04-08T17:16:36.062Z,99641.84
2024-04-08T17:19:22.965Z,99644.00
2024-04-08T17:22:09.463Z,99645.27
2024-04-08T17:24:56.040Z,99644.44
2024-04-08T17:27:42.245Z,99646.23
2024-04-08T17:30:28.655Z,99644.17
2024-04-08T17:33:17.366Z,99640.77
2024-04-08T17:36:07.781Z,99639.69
2024-04-08T17:43:37.414Z,99643.77
2024-04-08T17:46:24.218Z,99647.84
2024-04-08T17:49:10.608Z,99646.20
2024-04-08T17:51:57.323Z,99646.58
2024-04-08T17:54:44.213Z,99645.81
2024-04-08T17:57:31.265Z,99653.77
2024-04-08T18:00:17.639Z,99659.86
2024-04-08T18:03:04.817Z,99665.19
2024-04-08T18:05:52.723Z,99670.25
2024-04-08T18:08:43.611Z,99670.13
2024-04-08T18:11:40.951Z,99673.44
2024-04-08T18:14:35.582Z,99676.19
2024-04-08T18:17:22.409Z,99679.27
2024-04-08T18:20:09.405Z,99679.50
2024-04-08T18:22:55.842Z,99685.35
2024-04-08T18:25:43.234Z,99680.77
2024-04-08T18:28:35.100Z,99682.75
2024-04-08T18:31:21.826Z,99681.61
2024-04-08T18:34:09.937Z,99680.92
2024-04-08T18:36:56.239Z,99677.67
2024-04-08T18:39:42.925Z,99682.63
2024-04-08T18:42:30.021Z,99682.77
2024-04-08T18:45:16.674Z,99686.35
2024-04-08T18:48:04.011Z,99682.15
2024-04-08T18:50:53.007Z,99683.05
2024-04-08T18:53:40.208Z,99684.99
2024-04-08T18:56:26.708Z,99684.86
2024-04-08T18:59:13.204Z,99681.71
2024-04-08T19:01:59.661Z,99681.65
2024-04-08T19:04:46.430Z,99684.91
2024-04-08T19:07:33.347Z,99684.02
2024-04-08T19:10:19.805Z,99689.27
2024-04-08T19:13:07.781Z,99689.07
2024-04-08T19:16:01.859Z,99681.03
2024-04-08T19:19:17.280Z,99676.63
2024-04-08T19:22:07.281Z,99680.30
2024-04-08T19:24:56.039Z,99680.57
2024-04-08T19:27:44.801Z,99681.93
2024-04-08T19:30:31.980Z,99680.06
2024-04-08T19:33:18.497Z,99683.25
2024-04-08T19:36:08.783Z,99682.03
2024-04-08T19:38:55.171Z,99683.80
2024-04-08T19:41:41.681Z,99680.36
2024-04-08T19:44:28.255Z,99677.35
2024-04-08T19:47:14.781Z,99671.27
2024-04-08T19:50:02.302Z,99676.08
2024-04-08T19:52:48.798Z,99676.46
2024-04-08T19:55:34.873Z,99676.64
2024-04-08T19:58:23.902Z,99673.98
2024-04-08T20:01:12.222Z,99674.48
2024-04-08T20:04:00.066Z,99672.62
2024-04-08T20:06:46.633Z,99673.21
2024-04-08T20:09:38.162Z,99674.48
2024-04-08T20:16:57.220Z,99675.36
2024-04-08T20:19:43.743Z,99671.56
2024-04-08T20:22:30.266Z,99671.47
2024-04-08T20:25:16.369Z,99674.66
2024-04-08T20:28:02.805Z,99672.04
2024-04-08T20:30:57.097Z,99673.44
2024-04-08T20:33:43.301Z,99667.89
2024-04-08T20:36:29.832Z,99665.04
2024-04-08T20:39:16.269Z,99665.23
2024-04-08T20:42:05.788Z,99665.26
2024-04-08T20:44:53.000Z,99668.76
2024-04-08T20:47:39.263Z,99666.41
2024-04-08T20:50:25.656Z,99667.43
2024-04-08T20:53:11.770Z,99662.58
2024-04-08T20:56:03.234Z,99660.72
2024-04-08T20:58:51.751Z,99660.14
2024-04-08T21:01:38.311Z,99657.36
2024-04-08T21:04:25.248Z,99657.92
2024-04-08T21:07:12.141Z,99651.55
2024-04-08T21:09:58.461Z,99649.80
2024-04-08T21:12:50.563Z,99646.70
2024-04-08T21:15:38.407Z,99651.91
2024-04-08T21:18:25.651Z,99652.33
2024-04-08T21:21:14.548Z,99649.40
2024-04-08T21:24:01.250Z,99652.60
2024-04-08T21:26:48.013Z,99651.84
2024-04-08T21:30:00.357Z,99655.77
2024-04-08T21:32:51.585Z,99657.10
2024-04-08T21:35:39.649Z,99657.07
2024-04-08T21:38:27.172Z,99659.45
2024-04-08T21:41:14.108Z,99656.27
2024-04-08T21:44:00.647Z,99659.15
2024-04-08T21:46:49.360Z,99655.22
2024-04-08T21:49:35.745Z,99651.94
2024-04-08T21:52:22.446Z,99654.67
2024-04-08T21:55:08.928Z,99653.95
2024-04-08T21:57:55.807Z,99645.77
2024-04-08T22:00:46.675Z,99647.34
2024-04-08T22:03:33.672Z,99646.70
2024-04-08T22:06:24.275Z,99647.41
2024-04-08T22:09:42.157Z,99643.54
2024-04-08T22:12:28.689Z,99642.91
2024-04-08T22:15:14.977Z,99645.17
2024-04-08T22:18:02.772Z,99649.10
2024-04-08T22:20:49.166Z,99644.10
2024-04-08T22:23:35.846Z,99641.44
2024-04-08T22:26:23.470Z,99635.42
2024-04-08T22:29:10.029Z,99634.39
2024-04-08T22:31:56.234Z,99632.88
2024-04-08T22:34:42.509Z,99629.28
2024-04-08T22:37:32.291Z,99629.06
2024-04-08T22:40:18.765Z,99630.27
2024-04-08T22:43:04.923Z,99640.60
2024-04-08T22:45:51.225Z,99637.54
2024-04-08T22:48:37.482Z,99637.17
2024-04-08T22:51:24.286Z,99631.34
2024-04-08T22:54:10.875Z,99633.02
2024-04-08T22:56:57.613Z,99633.17
2024-04-08T22:59:44.228Z,99630.86
2024-04-08T23:02:31.990Z,99625.17
2024-04-08T23:05:21.574Z,99624.40
2024-04-08T23:08:10.515Z,99621.85
2024-04-08T23:10:57.495Z,99614.45
2024-04-08T23:13:44.447Z,99609.83
2024-04-08T23:16:30.838Z,99616.08
2024-04-08T23:19:16.988Z,99612.80
2024-04-08T23:22:03.769Z,99616.02
2024-04-08T23:24:49.907Z,99612.06
2024-04-08T23:27:36.185Z,99607.23
2024-04-08T23:30:23.147Z,99604.14
2024-04-08T23:33:09.790Z,99605.80
2024-04-08T23:35:56.271Z,99603.73
2024-04-08T23:38:43.231Z,99598.34
2024-04-08T23:41:29.579Z,99591.61
2024-04-08T23:44:18.236Z,99589.48
2024-04-08T23:47:04.906Z,99588.47
2024-04-08T23:49:54.013Z,99583.23
2024-04-08T23:52:40.335Z,99579.64
2024-04-08T23:55:26.347Z,99578.23
2024-04-08T23:58:15.050Z,99580.00
